Time;durP1;ratioP1;P1;durP2;ratioP2;P2;SDS_P1;SDS_P2;PMS_P1;PMS_P2;Temp;Humidity;BMP_temperature;BMP_pressure;BME280_temperature;BME280_humidity;BME280_pressure;Samples;Min_cycle;Max_cycle;Signal;HPM_P1;HPM_P2
2022/08/17 00:01:13;;;;;;;4.32;3.85;;;25.10;52.40;;;;;;4981585;28;20035;-80
2022/08/17 00:03:42;;;;;;;4.95;3.92;;;25.00;52.60;;;;;;4962937;28;20042;-80
2022/08/17 00:06:21;;;;;;;6.30;4.13;;;25.00;52.70;;;;;;4961317;28;20463;-80
2022/08/17 00:08:51;;;;;;;4.72;3.75;;;25.00;53.30;;;;;;4970512;28;20475;-80
2022/08/17 00:11:21;;;;;;;4.47;4.00;;;25.00;52.80;;;;;;4972749;28;20434;-80
2022/08/17 00:13:51;;;;;;;4.90;4.15;;;24.90;53.00;;;;;;4946284;28;20019;-80
2022/08/17 00:16:21;;;;;;;4.43;3.65;;;24.90;53.10;;;;;;4954650;28;20158;-80
2022/08/17 00:18:47;;;;;;;5.03;3.92;;;24.90;53.10;;;;;;4943170;28;20166;-79
2022/08/17 00:21:15;;;;;;;4.38;3.95;;;24.90;53.00;;;;;;4986119;28;20476;-80
2022/08/17 00:23:42;;;;;;;7.63;4.07;;;24.90;53.10;;;;;;4978484;28;20033;-80
2022/08/17 00:26:08;;;;;;;5.80;4.00;;;24.90;53.20;;;;;;4961518;28;20290;-80
2022/08/17 00:28:34;;;;;;;5.18;3.90;;;24.90;53.40;;;;;;4983670;28;20022;-79
2022/08/17 00:31:00;;;;;;;6.22;4.28;;;24.90;53.40;;;;;;4959433;28;20034;-80
2022/08/17 00:33:28;;;;;;;5.20;3.83;;;24.80;53.30;;;;;;4973331;28;20037;-80
2022/08/17 00:35:55;;;;;;;5.32;4.05;;;24.80;53.50;;;;;;4950474;28;20177;-80
2022/08/17 00:38:21;;;;;;;4.75;3.95;;;24.80;53.40;;;;;;4965018;28;20037;-80
2022/08/17 00:40:59;;;;;;;4.78;3.67;;;24.80;53.50;;;;;;4975316;28;20019;-80
2022/08/17 00:43:28;;;;;;;4.60;3.67;;;24.80;53.80;;;;;;4986292;28;20073;-80
2022/08/17 00:45:54;;;;;;;4.23;3.70;;;24.70;53.60;;;;;;4927398;28;20241;-80
2022/08/17 00:48:20;;;;;;;5.35;3.60;;;24.70;53.70;;;;;;4935254;28;20046;-80
2022/08/17 00:51:08;;;;;;;6.25;3.67;;;24.70;53.80;;;;;;4974711;28;20030;-80
2022/08/17 00:53:38;;;;;;;4.10;3.70;;;24.70;54.60;;;;;;4973695;28;20021;-80
2022/08/17 00:56:09;;;;;;;5.07;3.70;;;24.70;54.10;;;;;;4967016;28;20030;-80
2022/08/17 00:58:36;;;;;;;4.45;3.42;;;24.70;54.30;;;;;;4961072;28;20063;-80
2022/08/17 01:01:03;;;;;;;6.00;3.65;;;24.70;54.10;;;;;;4933749;28;20164;-77
2022/08/17 01:03:29;;;;;;;4.75;4.03;;;24.70;54.20;;;;;;4984959;28;20038;-77
2022/08/17 01:05:59;;;;;;;4.82;3.78;;;24.70;54.30;;;;;;4965661;28;20440;-76
2022/08/17 01:08:28;;;;;;;4.83;3.63;;;24.70;54.70;;;;;;4951651;28;20072;-76
2022/08/17 01:10:56;;;;;;;5.43;3.88;;;24.60;54.90;;;;;;4959514;28;20480;-76
2022/08/17 01:13:24;;;;;;;5.35;3.90;;;24.60;54.70;;;;;;4974660;28;20026;-76
2022/08/17 01:15:59;;;;;;;4.68;3.83;;;24.60;54.80;;;;;;4935848;28;20026;-76
2022/08/17 01:18:25;;;;;;;4.57;3.38;;;24.50;55.40;;;;;;4962868;28;20030;-76
2022/08/17 01:20:53;;;;;;;4.93;3.80;;;24.50;54.90;;;;;;4965142;28;20129;-76
2022/08/17 01:23:22;;;;;;;5.53;4.07;;;24.50;55.20;;;;;;4967193;28;20026;-76
2022/08/17 01:25:55;;;;;;;4.38;3.97;;;24.50;55.20;;;;;;4955542;28;20117;-76
2022/08/17 01:28:21;;;;;;;5.40;4.00;;;24.50;55.60;;;;;;4975347;28;20018;-76
2022/08/17 01:30:49;;;;;;;5.30;4.03;;;24.50;55.10;;;;;;4929621;28;20114;-76
2022/08/17 01:33:15;;;;;;;5.23;4.30;;;24.40;55.20;;;;;;4947146;28;20033;-76
2022/08/17 01:35:41;;;;;;;5.28;4.10;;;24.40;55.10;;;;;;4930583;28;20034;-76
2022/08/17 01:38:08;;;;;;;5.00;4.40;;;24.40;55.40;;;;;;4966493;28;20571;-76
2022/08/17 01:40:41;;;;;;;5.28;4.03;;;24.40;55.40;;;;;;4982566;28;20109;-77
2022/08/17 01:43:13;;;;;;;6.13;4.30;;;24.40;56.10;;;;;;4981374;28;20243;-77
2022/08/17 01:45:44;;;;;;;5.25;4.53;;;24.30;56.00;;;;;;4950317;28;20049;-76
2022/08/17 01:48:11;;;;;;;5.40;4.75;;;24.30;56.40;;;;;;4954498;28;20030;-76
2022/08/17 01:50:40;;;;;;;5.63;4.53;;;24.20;56.00;;;;;;4961166;28;20049;-76
2022/08/17 01:53:13;;;;;;;5.63;4.50;;;24.20;56.40;;;;;;4981174;28;20335;-76
2022/08/17 01:55:59;;;;;;;4.82;4.32;;;24.10;56.80;;;;;;4984884;28;20121;-76
2022/08/17 01:58:25;;;;;;;5.78;4.57;;;24.10;57.70;;;;;;4975406;28;20097;-76
2022/08/17 02:00:52;;;;;;;6.80;4.63;;;24.10;56.50;;;;;;4964509;28;20227;-76
2022/08/17 02:03:20;;;;;;;6.65;5.10;;;24.00;56.70;;;;;;4932632;28;20089;-77
2022/08/17 02:05:52;;;;;;;5.60;4.75;;;24.00;56.80;;;;;;4960075;28;20060;-76
2022/08/17 02:08:19;;;;;;;6.75;4.80;;;24.00;57.60;;;;;;4967121;28;20041;-77
2022/08/17 02:10:45;;;;;;;5.70;4.68;;;24.00;56.90;;;;;;4964527;28;20018;-77
2022/08/17 02:13:12;;;;;;;5.73;4.77;;;24.00;57.80;;;;;;4940247;28;20089;-77
2022/08/17 02:15:37;;;;;;;5.22;4.70;;;24.00;57.20;;;;;;4953949;28;20113;-76
2022/08/17 02:18:04;;;;;;;5.93;4.88;;;23.90;57.20;;;;;;4961679;28;20658;-76
2022/08/17 02:20:31;;;;;;;5.50;4.73;;;24.00;57.30;;;;;;4937278;28;20566;-76
2022/08/17 02:23:02;;;;;;;6.53;4.93;;;23.90;57.20;;;;;;4939600;28;20523;-77
2022/08/17 02:25:30;;;;;;;6.00;4.95;;;23.90;57.90;;;;;;4978873;28;20484;-76
2022/08/17 02:27:56;;;;;;;6.22;4.82;;;23.90;57.50;;;;;;4953707;28;20628;-77
2022/08/17 02:30:23;;;;;;;6.10;5.00;;;23.90;58.10;;;;;;4965774;28;20030;-76
2022/08/17 02:32:51;;;;;;;6.73;5.17;;;23.90;57.50;;;;;;4946191;28;20014;-76
2022/08/17 02:35:17;;;;;;;6.05;4.75;;;23.90;57.80;;;;;;4964494;28;20037;-76
2022/08/17 02:37:43;;;;;;;6.18;5.00;;;23.90;57.70;;;;;;4956687;28;20026;-77
2022/08/17 02:40:09;;;;;;;6.45;4.38;;;23.90;57.80;;;;;;4974944;28;20233;-77
2022/08/17 02:42:38;;;;;;;4.97;4.47;;;23.80;57.90;;;;;;4965646;28;20029;-77
2022/08/17 02:45:07;;;;;;;5.10;4.18;;;23.80;58.10;;;;;;4955578;28;20092;-77
2022/08/17 02:47:33;;;;;;;5.78;4.80;;;23.70;58.10;;;;;;4964655;28;20110;-76
2022/08/17 02:49:59;;;;;;;5.40;4.53;;;23.70;58.10;;;;;;4950863;28;20026;-77
2022/08/17 02:52:26;;;;;;;5.00;4.30;;;23.80;58.10;;;;;;4974532;28;20037;-77
2022/08/17 02:54:52;;;;;;;6.18;4.72;;;23.70;58.80;;;;;;4946973;28;20165;-76
2022/08/17 02:57:18;;;;;;;5.87;4.37;;;23.70;58.30;;;;;;4974469;28;20030;-76
2022/08/17 02:59:44;;;;;;;4.72;4.22;;;23.70;58.40;;;;;;4958431;28;20106;-76
2022/08/17 03:02:10;;;;;;;6.00;5.03;;;23.70;58.40;;;;;;4946529;28;22426;-76
2022/08/17 03:04:37;;;;;;;5.25;4.75;;;23.60;58.60;;;;;;4964106;28;20029;-76
2022/08/17 03:07:04;;;;;;;3.80;3.10;;;23.60;58.70;;;;;;4980852;28;20048;-77
2022/08/17 03:09:30;;;;;;;6.07;4.10;;;23.60;58.80;;;;;;4946853;28;20074;-77
2022/08/17 03:12:08;;;;;;;5.13;4.60;;;23.60;58.80;;;;;;4968597;28;20033;-76
2022/08/17 03:14:40;;;;;;;6.53;4.93;;;23.60;59.60;;;;;;4981545;28;20392;-77
2022/08/17 03:17:05;;;;;;;6.70;4.50;;;23.50;59.30;;;;;;4953397;28;20258;-76
2022/08/17 03:19:31;;;;;;;7.35;4.60;;;23.60;59.10;;;;;;4946561;28;20030;-77
2022/08/17 03:21:58;;;;;;;6.45;4.80;;;23.50;59.30;;;;;;4954357;28;20507;-76
2022/08/17 03:24:24;;;;;;;5.60;4.07;;;23.50;59.50;;;;;;4929125;28;20350;-76
2022/08/17 03:26:49;;;;;;;5.78;4.45;;;23.40;60.10;;;;;;4974658;28;20133;-76
2022/08/17 03:29:18;;;;;;;5.63;4.40;;;23.50;59.60;;;;;;4982337;28;20699;-76
2022/08/17 03:31:47;;;;;;;5.57;4.45;;;23.40;59.50;;;;;;4936849;28;20379;-76
2022/08/17 03:34:14;;;;;;;6.45;4.93;;;23.40;60.10;;;;;;4948493;28;20360;-77
2022/08/17 03:36:40;;;;;;;7.22;4.55;;;23.40;59.70;;;;;;4963434;28;20382;-77
2022/08/17 03:39:06;;;;;;;5.35;4.65;;;23.40;59.80;;;;;;4977396;28;20126;-76
2022/08/17 03:41:32;;;;;;;5.40;4.73;;;23.40;59.80;;;;;;4939344;28;20026;-76
2022/08/17 03:43:58;;;;;;;6.55;4.63;;;23.30;59.80;;;;;;4976410;28;20050;-77
2022/08/17 03:57:24;;;;;;;5.72;4.50;;;23.30;60.00;;;;;;4964091;28;20042;-76
2022/08/17 03:59:52;;;;;;;4.30;3.83;;;23.20;60.20;;;;;;4961992;28;20022;-76
2022/08/17 04:02:22;;;;;;;6.47;4.60;;;23.20;60.40;;;;;;4971012;28;20576;-76
2022/08/17 04:04:51;;;;;;;5.22;4.45;;;23.20;60.60;;;;;;4956651;28;20459;-76
2022/08/17 04:07:22;;;;;;;6.93;4.30;;;23.10;60.40;;;;;;4946008;28;20466;-77
2022/08/17 04:09:48;;;;;;;6.25;4.90;;;23.10;60.50;;;;;;4978812;28;20030;-76
2022/08/17 04:12:16;;;;;;;6.38;4.80;;;23.10;60.50;;;;;;4968229;28;20442;-77
2022/08/17 04:14:42;;;;;;;6.23;4.63;;;23.00;60.70;;;;;;4980706;28;20415;-77
2022/08/17 04:17:08;;;;;;;5.90;4.72;;;23.00;60.70;;;;;;4968022;28;20042;-77
2022/08/17 04:19:34;;;;;;;5.57;4.35;;;23.00;60.90;;;;;;4980464;28;20526;-77
2022/08/17 04:22:00;;;;;;;4.95;4.32;;;23.00;60.90;;;;;;4976133;28;20104;-77
2022/08/17 04:24:26;;;;;;;5.73;4.73;;;22.90;61.20;;;;;;4961858;28;20040;-77
2022/08/17 04:26:52;;;;;;;7.18;4.68;;;23.00;61.20;;;;;;4959695;28;20053;-77
2022/08/17 04:29:18;;;;;;;5.93;4.50;;;22.90;61.30;;;;;;4967559;28;20026;-77
2022/08/17 04:31:44;;;;;;;6.03;4.70;;;22.90;61.40;;;;;;4981185;28;20498;-77
2022/08/17 04:34:10;;;;;;;5.90;4.70;;;22.90;61.50;;;;;;4948004;28;20081;-77
2022/08/17 04:36:36;;;;;;;5.38;4.50;;;22.80;61.50;;;;;;4976577;28;20172;-77
2022/08/17 04:39:02;;;;;;;6.17;4.87;;;22.80;61.60;;;;;;4960324;28;20031;-77
2022/08/17 04:44:12;;;;;;;5.95;4.65;;;22.80;61.70;;;;;;4975609;28;20133;-77
2022/08/17 04:46:38;;;;;;;5.73;4.67;;;22.90;61.90;;;;;;4965369;28;20538;-77
2022/08/17 04:49:07;;;;;;;5.85;4.43;;;22.90;62.00;;;;;;4934532;28;20038;-76
2022/08/17 04:51:39;;;;;;;6.60;4.55;;;22.90;62.30;;;;;;4974101;28;20022;-77
2022/08/17 04:54:08;;;;;;;5.35;4.22;;;22.90;62.40;;;;;;4956654;28;20073;-77
2022/08/17 04:56:34;;;;;;;5.63;4.60;;;22.90;62.50;;;;;;4958099;28;20223;-76
2022/08/17 04:59:03;;;;;;;6.47;4.30;;;22.90;62.10;;;;;;4955723;28;20034;-76
2022/08/17 05:01:33;;;;;;;5.03;4.18;;;23.00;62.50;;;;;;4982342;28;20350;-77
2022/08/17 05:04:01;;;;;;;4.32;3.80;;;23.00;62.80;;;;;;4933296;28;20037;-77
2022/08/17 05:06:28;;;;;;;4.53;3.97;;;23.00;62.80;;;;;;4982391;28;20080;-77
2022/08/17 05:08:55;;;;;;;5.00;4.20;;;23.00;62.70;;;;;;4964247;28;20049;-77
2022/08/17 05:11:24;;;;;;;4.40;3.93;;;23.00;62.80;;;;;;4963570;28;20097;-76
2022/08/17 05:13:50;;;;;;;5.82;4.32;;;23.00;63.30;;;;;;4965133;28;20348;-77
2022/08/17 05:16:18;;;;;;;4.45;3.88;;;23.00;63.20;;;;;;4956382;28;20052;-77
2022/08/17 05:18:44;;;;;;;4.72;3.95;;;23.00;63.50;;;;;;4960719;28;22442;-76
2022/08/17 05:21:10;;;;;;;5.40;4.20;;;23.10;63.60;;;;;;4970670;28;20375;-77
2022/08/17 05:23:37;;;;;;;5.33;4.30;;;23.10;63.60;;;;;;4950914;28;20085;-77
2022/08/17 05:26:03;;;;;;;5.57;3.83;;;23.10;63.90;;;;;;4944417;28;20673;-77
2022/08/17 05:28:30;;;;;;;5.95;3.97;;;23.10;64.00;;;;;;4965196;28;20288;-77
2022/08/17 05:30:58;;;;;;;6.75;4.00;;;23.10;64.00;;;;;;4976733;28;20499;-77
2022/08/17 05:33:27;;;;;;;5.63;3.77;;;23.10;64.20;;;;;;4949809;28;20605;-76
2022/08/17 05:35:56;;;;;;;5.68;4.18;;;23.10;64.30;;;;;;4954348;28;20699;-77
2022/08/17 05:38:23;;;;;;;5.00;3.83;;;23.20;64.40;;;;;;4968769;28;20405;-79
2022/08/17 05:40:49;;;;;;;6.13;4.18;;;23.20;64.50;;;;;;4922284;28;20276;-79
2022/08/17 05:43:21;;;;;;;6.47;4.50;;;23.20;64.60;;;;;;4956191;28;20031;-79
2022/08/17 05:45:58;;;;;;;5.38;3.95;;;23.20;65.10;;;;;;4958017;28;20478;-77
2022/08/17 05:48:24;;;;;;;5.72;4.35;;;23.20;65.50;;;;;;4951419;28;20034;-78
2022/08/17 05:51:04;;;;;;;5.32;4.60;;;23.20;65.20;;;;;;4968567;28;20121;-78
2022/08/17 05:54:09;;;;;;;7.43;4.50;;;23.30;65.40;;;;;;4955625;28;20023;-77
2022/08/17 05:57:09;;;;;;;4.97;4.30;;;23.30;68.60;;;;;;4953311;28;20120;-77
2022/08/17 05:59:57;;;;;;;6.13;4.30;;;23.30;67.90;;;;;;4971971;28;20030;-76
2022/08/17 06:02:53;;;;;;;6.65;4.72;;;23.30;67.70;;;;;;4968327;28;20391;-77
2022/08/17 06:05:47;;;;;;;6.13;4.45;;;23.40;67.70;;;;;;4959716;28;20479;-77
2022/08/17 06:08:50;;;;;;;5.63;3.75;;;23.50;67.40;;;;;;4984727;28;20030;-77
2022/08/17 06:11:23;;;;;;;4.80;3.97;;;23.50;67.70;;;;;;4969442;28;20038;-77
2022/08/17 06:14:08;;;;;;;4.63;4.10;;;23.60;65.80;;;;;;4966288;28;20031;-77
2022/08/17 06:16:38;;;;;;;5.03;4.32;;;23.60;67.20;;;;;;4934210;28;20034;-77
2022/08/17 06:19:26;;;;;;;6.80;4.78;;;23.60;66.20;;;;;;4981446;28;20073;-77
2022/08/17 06:21:53;;;;;;;6.13;4.65;;;23.70;67.50;;;;;;4952276;28;20034;-77
2022/08/17 06:24:19;;;;;;;6.13;4.80;;;23.70;66.00;;;;;;4981785;28;20065;-76
2022/08/17 06:26:46;;;;;;;5.90;4.57;;;23.70;65.90;;;;;;4941312;28;20609;-77
2022/08/17 06:29:23;;;;;;;5.18;4.63;;;23.70;65.90;;;;;;4953219;28;20030;-77
2022/08/17 06:31:49;;;;;;;5.93;4.47;;;23.70;65.90;;;;;;4951184;28;20373;-77
2022/08/17 06:34:16;;;;;;;6.38;4.40;;;23.70;66.00;;;;;;4985743;28;20026;-77
2022/08/17 06:37:03;;;;;;;5.47;4.65;;;23.70;66.10;;;;;;4957718;28;20053;-77
2022/08/17 06:39:55;;;;;;;7.57;4.70;;;23.80;67.50;;;;;;4966230;28;20549;-77
2022/08/17 06:42:39;;;;;;;5.47;4.35;;;23.70;67.00;;;;;;4948212;28;21063;-77
2022/08/17 06:45:21;;;;;;;6.60;4.33;;;23.80;66.60;;;;;;4947413;28;20030;-77
2022/08/17 06:48:11;;;;;;;5.57;4.40;;;23.80;67.00;;;;;;4968174;28;20049;-77
2022/08/17 06:50:52;;;;;;;6.10;4.35;;;23.80;67.30;;;;;;4959933;28;20029;-77
2022/08/17 06:53:41;;;;;;;6.75;4.60;;;23.80;67.30;;;;;;4951210;28;20022;-77
2022/08/17 06:56:10;;;;;;;5.20;4.30;;;23.80;67.00;;;;;;4965763;28;20054;-77
2022/08/17 06:58:37;;;;;;;5.93;4.43;;;23.80;66.20;;;;;;4957325;28;20046;-77
2022/08/17 07:01:15;;;;;;;5.68;4.25;;;23.80;66.20;;;;;;4951536;28;20048;-77
2022/08/17 07:03:57;;;;;;;6.18;4.57;;;23.80;67.00;;;;;;4962761;28;20030;-77
2022/08/17 07:06:28;;;;;;;6.47;4.50;;;23.80;67.50;;;;;;4961575;28;20243;-77
2022/08/17 07:09:12;;;;;;;7.30;4.50;;;23.80;66.60;;;;;;4949302;28;20031;-78
2022/08/17 07:12:14;;;;;;;6.43;4.33;;;23.80;66.80;;;;;;4962391;28;20025;-77
2022/08/17 07:14:51;;;;;;;5.35;4.63;;;23.80;67.70;;;;;;4949328;28;20030;-77
2022/08/17 07:17:20;;;;;;;5.55;4.38;;;23.70;66.80;;;;;;4953628;28;20601;-77
2022/08/17 07:19:49;;;;;;;5.97;4.72;;;23.70;66.30;;;;;;4959191;28;20023;-77
2022/08/17 07:22:29;;;;;;;6.50;4.88;;;23.70;66.70;;;;;;4959870;28;20030;-76
2022/08/17 07:24:57;;;;;;;7.23;4.93;;;23.60;67.80;;;;;;4966677;28;20026;-77
2022/08/17 07:27:26;;;;;;;6.90;5.00;;;23.60;66.80;;;;;;4949795;28;20046;-77
2022/08/17 07:29:55;;;;;;;8.80;5.50;;;23.60;67.20;;;;;;4948813;28;20054;-77
2022/08/17 07:32:41;;;;;;;7.28;5.25;;;23.60;67.90;;;;;;4970686;28;20035;-77
2022/08/17 07:35:16;;;;;;;6.78;5.15;;;23.60;69.50;;;;;;4953277;28;20327;-76
2022/08/17 07:37:51;;;;;;;6.97;5.20;;;23.50;68.60;;;;;;4965024;28;20050;-76
2022/08/17 07:40:25;;;;;;;7.38;5.63;;;23.50;68.20;;;;;;4971142;28;20023;-76
2022/08/17 07:43:07;;;;;;;6.32;5.07;;;23.50;68.60;;;;;;4962470;28;20026;-76
2022/08/17 07:48:24;;;;;;;6.88;5.22;;;23.50;68.60;;;;;;4959971;28;20495;-76
2022/08/17 07:50:52;;;;;;;7.03;5.10;;;23.50;68.60;;;;;;4954924;28;20010;-76
2022/08/17 07:53:23;;;;;;;7.95;5.18;;;23.50;68.70;;;;;;4968671;28;20019;-76
2022/08/17 07:55:49;;;;;;;7.88;5.70;;;23.50;69.60;;;;;;4949956;28;20097;-76
2022/08/17 07:58:18;;;;;;;6.55;5.35;;;23.50;69.10;;;;;;4962063;28;20500;-76
2022/08/17 08:00:45;;;;;;;8.60;6.13;;;23.60;69.50;;;;;;4929806;28;21566;-76
2022/08/17 08:03:28;;;;;;;7.43;6.23;;;23.60;69.40;;;;;;4983108;28;20025;-76
2022/08/17 08:05:59;;;;;;;8.70;6.38;;;23.60;70.90;;;;;;4939844;28;20066;-76
2022/08/17 08:08:26;;;;;;;8.73;6.40;;;23.60;70.40;;;;;;4959257;28;20476;-76
2022/08/17 08:10:58;;;;;;;8.32;6.07;;;23.60;69.70;;;;;;4934306;28;21391;-76
2022/08/17 08:13:27;;;;;;;9.38;6.25;;;23.70;70.30;;;;;;4944612;28;20499;-76
2022/08/17 08:16:12;;;;;;;7.67;6.30;;;23.70;69.70;;;;;;4940556;28;20400;-76
2022/08/17 08:18:44;;;;;;;9.20;6.47;;;23.70;69.80;;;;;;4953728;28;20527;-76
2022/08/17 08:21:18;;;;;;;9.15;6.28;;;23.70;70.10;;;;;;4975187;28;20041;-76
2022/08/17 08:24:18;;;;;;;10.07;6.40;;;23.70;70.30;;;;;;4954573;28;20485;-76
2022/08/17 08:27:18;;;;;;;9.48;6.35;;;23.70;71.10;;;;;;4962648;28;20162;-77
2022/08/17 08:29:53;;;;;;;8.77;6.30;;;23.60;71.60;;;;;;4953794;28;20035;-77
2022/08/17 08:32:24;;;;;;;7.38;5.88;;;23.60;70.00;;;;;;4962081;28;20444;-76
2022/08/17 08:35:11;;;;;;;8.18;5.82;;;23.60;70.40;;;;;;4963441;28;20571;-77
2022/08/17 08:38:15;;;;;;;8.45;6.40;;;23.50;72.90;;;;;;4974043;28;20081;-76
2022/08/17 08:40:55;;;;;;;8.55;6.22;;;23.50;73.40;;;;;;4960347;28;20050;-77
2022/08/17 08:44:08;;;;;;;8.80;6.63;;;23.40;72.00;;;;;;4966332;28;20134;-77
2022/08/17 08:46:43;;;;;;;10.07;6.65;;;23.40;74.10;;;;;;4938707;28;20462;-76
2022/08/17 08:49:24;;;;;;;10.10;6.95;;;23.30;73.50;;;;;;4970101;28;20132;-77
2022/08/17 08:52:01;;;;;;;9.93;6.47;;;23.30;72.50;;;;;;4977787;28;20205;-77
2022/08/17 08:55:18;;;;;;;8.40;6.72;;;23.30;73.80;;;;;;4940173;28;20038;-77
2022/08/17 08:57:55;;;;;;;9.10;6.43;;;23.30;75.40;;;;;;4911750;28;20312;-77
2022/08/17 09:00:24;;;;;;;10.73;6.75;;;23.30;74.50;;;;;;4959598;28;20032;-77
2022/08/17 09:03:06;;;;;;;9.82;6.57;;;23.30;75.30;;;;;;4959154;28;24078;-77
2022/08/17 09:05:54;;;;;;;10.48;7.07;;;23.30;75.70;;;;;;4978952;28;20043;-77
2022/08/17 09:08:42;;;;;;;9.07;7.00;;;23.30;76.50;;;;;;4982911;28;20029;-77
2022/08/17 09:11:23;;;;;;;10.23;7.23;;;23.30;76.60;;;;;;4981980;28;20077;-77
2022/08/17 09:14:07;;;;;;;10.60;7.22;;;23.40;76.20;;;;;;4954427;28;20260;-77
2022/08/17 09:16:57;;;;;;;11.02;7.75;;;23.40;76.80;;;;;;4954646;28;20065;-77
2022/08/17 09:19:58;;;;;;;12.00;8.40;;;23.40;75.90;;;;;;4911970;28;20045;-77
2022/08/17 09:22:41;;;;;;;14.15;8.93;;;23.50;76.90;;;;;;4974299;28;20487;-77
2022/08/17 09:25:15;;;;;;;12.73;9.07;;;23.40;76.50;;;;;;4959888;28;20117;-76
2022/08/17 09:27:59;;;;;;;13.10;9.55;;;23.50;75.80;;;;;;4928842;28;20129;-76
2022/08/17 09:30:35;;;;;;;14.27;9.43;;;23.50;76.90;;;;;;4940181;28;20045;-76
2022/08/17 09:33:05;;;;;;;12.77;9.52;;;23.50;76.00;;;;;;4960649;28;20030;-76
2022/08/17 09:35:46;;;;;;;13.00;8.90;;;23.50;76.40;;;;;;4964697;28;20352;-77
2022/08/17 09:38:36;;;;;;;13.77;9.50;;;23.60;77.20;;;;;;4970160;28;20035;-77
2022/08/17 09:41:02;;;;;;;15.05;10.20;;;23.60;77.60;;;;;;4961620;28;20176;-77
2022/08/17 09:43:45;;;;;;;14.83;10.00;;;23.70;76.70;;;;;;4958527;28;20204;-76
2022/08/17 09:46:14;;;;;;;12.70;9.67;;;23.70;77.30;;;;;;4973651;28;20286;-76
2022/08/17 09:48:42;;;;;;;14.52;9.98;;;23.80;77.00;;;;;;4960854;28;20027;-76
2022/08/17 09:51:20;;;;;;;14.27;9.70;;;23.80;77.10;;;;;;4987127;28;20092;-76
2022/08/17 09:53:46;;;;;;;13.13;9.65;;;23.80;77.30;;;;;;4959699;28;20019;-76
2022/08/17 09:56:33;;;;;;;13.82;9.50;;;23.90;76.80;;;;;;4964923;28;20084;-76
2022/08/17 09:59:21;;;;;;;14.37;9.87;;;23.90;77.40;;;;;;4970650;28;20162;-76
2022/08/17 10:02:00;;;;;;;13.52;10.02;;;23.90;77.50;;;;;;4965116;28;20207;-77
2022/08/17 10:04:32;;;;;;;13.02;9.75;;;23.90;77.20;;;;;;4927090;28;20105;-77
2022/08/17 10:07:13;;;;;;;13.77;10.13;;;23.80;77.20;;;;;;4978620;28;20221;-77
2022/08/17 10:09:50;;;;;;;13.40;10.13;;;23.80;77.80;;;;;;4958782;28;20106;-77
2022/08/17 10:12:39;;;;;;;15.20;10.10;;;23.80;77.80;;;;;;4940775;28;20085;-77
2022/08/17 10:15:28;;;;;;;14.75;10.18;;;23.80;77.00;;;;;;4959968;28;20149;-77
2022/08/17 10:18:15;;;;;;;13.93;9.90;;;23.70;77.50;;;;;;4934870;28;20045;-77
2022/08/17 10:26:51;;;;;;;14.10;10.23;;;23.70;77.60;;;;;;4948523;28;20817;-77
2022/08/17 10:29:38;;;;;;;14.63;10.40;;;23.60;77.40;;;;;;4952461;28;20039;-76
2022/08/17 10:32:10;;;;;;;14.38;10.50;;;23.60;78.50;;;;;;4934701;28;20378;-76
2022/08/17 10:34:46;;;;;;;13.50;9.40;;;23.60;78.30;;;;;;4954416;28;20069;-76
2022/08/17 10:37:34;;;;;;;14.18;10.23;;;23.70;78.90;;;;;;4935263;28;20035;-76
2022/08/17 10:40:23;;;;;;;14.90;10.37;;;23.70;79.30;;;;;;4977662;28;20192;-76
2022/08/17 10:43:11;;;;;;;14.68;10.40;;;23.70;78.70;;;;;;4955517;28;20041;-76
2022/08/17 10:45:50;;;;;;;13.32;10.25;;;23.80;78.80;;;;;;4971900;28;20569;-76
2022/08/17 10:48:24;;;;;;;13.82;10.18;;;23.80;78.50;;;;;;4970127;28;20475;-76
2022/08/17 10:50:58;;;;;;;13.68;10.30;;;23.80;78.10;;;;;;4948891;28;20014;-76
2022/08/17 10:53:49;;;;;;;15.73;10.37;;;23.90;78.60;;;;;;4961428;28;20187;-76
2022/08/17 10:56:17;;;;;;;14.02;10.27;;;23.90;79.10;;;;;;4957532;28;20431;-76
2022/08/17 10:58:53;;;;;;;14.00;10.68;;;23.90;78.10;;;;;;4970149;28;20062;-76
2022/08/17 11:01:32;;;;;;;15.00;10.57;;;23.90;78.40;;;;;;4969415;28;20390;-76
2022/08/17 11:04:18;;;;;;;16.02;9.65;;;23.90;78.80;;;;;;4955930;28;20264;-76
2022/08/17 11:06:49;;;;;;;14.50;9.60;;;23.80;78.50;;;;;;4960310;28;20034;-76
2022/08/17 11:09:54;;;;;;;12.95;9.20;;;23.80;78.30;;;;;;4964634;28;20117;-76
2022/08/17 11:12:36;;;;;;;14.52;9.82;;;23.80;78.70;;;;;;4984025;28;20043;-76
2022/08/17 11:15:50;;;;;;;14.38;10.20;;;23.80;78.90;;;;;;4927623;28;20039;-77
2022/08/17 11:18:55;;;;;;;13.80;9.77;;;23.80;79.60;;;;;;4945123;28;20030;-76
2022/08/17 11:21:20;;;;;;;14.77;10.03;;;23.80;79.60;;;;;;4970496;28;20115;-76
2022/08/17 11:24:12;;;;;;;13.52;10.30;;;23.80;78.80;;;;;;4950019;28;20034;-76
2022/08/17 11:26:46;;;;;;;14.18;10.15;;;23.90;80.10;;;;;;4963290;28;20092;-77
2022/08/17 11:29:26;;;;;;;13.13;9.43;;;23.80;79.00;;;;;;4950729;28;20041;-76
2022/08/17 11:32:39;;;;;;;14.52;10.00;;;23.90;79.50;;;;;;4968889;28;20101;-76
2022/08/17 11:35:20;;;;;;;14.82;10.23;;;23.90;79.60;;;;;;4954791;28;20105;-76
2022/08/17 11:38:12;;;;;;;13.60;10.02;;;23.90;79.50;;;;;;4952772;28;20029;-76
2022/08/17 11:41:07;;;;;;;16.00;10.20;;;23.90;79.40;;;;;;4969661;28;20026;-76
2022/08/17 11:43:40;;;;;;;13.97;9.60;;;23.90;79.50;;;;;;4972680;28;20058;-76
2022/08/17 11:46:21;;;;;;;14.55;10.05;;;23.90;79.50;;;;;;4950460;28;20042;-76
2022/08/17 11:52:12;;;;;;;14.43;9.88;;;23.90;80.00;;;;;;4978141;28;20019;-76
2022/08/17 11:54:40;;;;;;;14.48;10.18;;;23.90;80.20;;;;;;4968454;28;20026;-76
2022/08/17 11:57:24;;;;;;;14.57;10.30;;;24.00;79.70;;;;;;4942962;28;20038;-76
2022/08/17 11:59:50;;;;;;;15.63;10.80;;;24.00;80.30;;;;;;4967957;28;20050;-76
2022/08/17 12:02:31;;;;;;;14.63;10.52;;;23.90;79.40;;;;;;4949792;28;20026;-76
2022/08/17 12:05:08;;;;;;;12.87;9.63;;;24.00;80.20;;;;;;4968704;28;20043;-76
2022/08/17 12:07:45;;;;;;;14.63;10.40;;;23.90;79.60;;;;;;4986823;28;20053;-76
2022/08/17 12:10:12;;;;;;;13.45;9.73;;;23.90;79.90;;;;;;4953406;28;20026;-76
2022/08/17 12:12:42;;;;;;;14.45;10.68;;;23.90;79.80;;;;;;4973490;28;20057;-76
2022/08/17 12:15:20;;;;;;;16.40;10.57;;;23.90;80.30;;;;;;4965079;28;20083;-76
2022/08/17 12:17:54;;;;;;;13.53;10.00;;;23.90;81.10;;;;;;4924818;28;20073;-76
2022/08/17 12:20:26;;;;;;;13.70;9.93;;;23.90;81.50;;;;;;4969807;28;20233;-76
2022/08/17 12:23:06;;;;;;;13.75;10.00;;;24.00;81.80;;;;;;4970218;28;20125;-76
2022/08/17 12:25:58;;;;;;;14.82;10.05;;;24.10;82.20;;;;;;4946282;28;20053;-76
2022/08/17 12:28:28;;;;;;;13.90;9.45;;;24.20;82.10;;;;;;4970110;28;20326;-76
2022/08/17 12:30:59;;;;;;;12.00;8.90;;;24.30;83.30;;;;;;4988811;28;20117;-76
2022/08/17 12:33:27;;;;;;;11.60;9.27;;;24.50;82.90;;;;;;4960274;28;20042;-76
2022/08/17 12:36:07;;;;;;;12.00;9.45;;;24.60;82.90;;;;;;4976902;28;20028;-76
2022/08/17 12:38:36;;;;;;;13.32;9.88;;;24.80;83.00;;;;;;4984400;28;20034;-76
2022/08/17 12:44:24;;;;;;;12.47;9.10;;;25.00;82.60;;;;;;4967303;28;20359;-76
2022/08/17 12:47:03;;;;;;;13.50;9.13;;;25.20;81.80;;;;;;4949057;28;20039;-76
2022/08/17 12:49:34;;;;;;;13.82;9.80;;;25.30;82.30;;;;;;4991965;28;20092;-76
2022/08/17 12:52:03;;;;;;;12.38;9.68;;;25.40;82.50;;;;;;4980520;28;20030;-76
2022/08/17 12:54:38;;;;;;;11.25;8.90;;;25.60;82.20;;;;;;4980542;28;20687;-76
2022/08/17 12:57:11;;;;;;;12.67;9.23;;;25.60;81.60;;;;;;4968368;28;20050;-75
2022/08/17 12:59:41;;;;;;;10.88;8.95;;;25.70;81.00;;;;;;4985940;28;20600;-76
2022/08/17 13:02:17;;;;;;;11.65;8.88;;;25.70;80.60;;;;;;4955657;28;20023;-76
2022/08/17 13:04:43;;;;;;;12.48;9.73;;;25.80;80.90;;;;;;4975277;28;20030;-76
2022/08/17 13:07:09;;;;;;;12.73;9.88;;;25.90;82.20;;;;;;4955951;28;20031;-76
2022/08/17 13:09:35;;;;;;;13.33;9.93;;;26.10;84.10;;;;;;4988956;28;20069;-76
2022/08/17 13:12:01;;;;;;;13.30;10.48;;;26.40;85.50;;;;;;4986946;28;20490;-76
2022/08/17 13:14:27;;;;;;;12.05;9.80;;;26.70;85.10;;;;;;4946371;28;20014;-76
2022/08/17 13:17:04;;;;;;;11.93;9.20;;;27.00;83.60;;;;;;4956663;28;20552;-76
2022/08/17 13:19:31;;;;;;;10.48;8.75;;;27.20;81.40;;;;;;4977260;28;20407;-76
2022/08/17 13:22:00;;;;;;;9.95;8.43;;;27.30;80.80;;;;;;4968682;28;20030;-76
2022/08/17 13:24:28;;;;;;;10.48;8.25;;;27.30;79.40;;;;;;4938553;28;20541;-76
2022/08/17 13:27:00;;;;;;;10.65;8.95;;;27.30;79.30;;;;;;4966286;28;20039;-76
2022/08/17 13:29:33;;;;;;;10.53;8.33;;;27.30;78.40;;;;;;4959379;28;20114;-76
2022/08/17 13:32:08;;;;;;;11.18;8.30;;;27.40;79.70;;;;;;4971753;28;20015;-76
2022/08/17 13:34:47;;;;;;;10.25;8.70;;;27.50;80.50;;;;;;4957355;28;20496;-76
2022/08/17 13:37:43;;;;;;;10.30;8.95;;;27.70;80.70;;;;;;4962547;28;20038;-76
2022/08/17 13:40:07;;;;;;;10.90;8.95;;;27.80;79.30;;;;;;4939947;28;20376;-76
2022/08/17 13:42:46;;;;;;;10.07;8.67;;;28.00;80.00;;;;;;4982389;28;20141;-76
2022/08/17 13:45:27;;;;;;;10.52;8.70;;;28.10;78.30;;;;;;4964167;28;20560;-77
2022/08/17 13:48:14;;;;;;;10.53;8.33;;;28.10;76.70;;;;;;4967396;28;20531;-76